LiveATC.Net - Listen to live air traffic control over the Internet!


ICAO: KOFP  IATA: OFP   Airport: Hanover County Municipal Airport
City: Richmond/Ashland   State/Province: Virginia
Country: United States   Continent: North America
KOFP METAR Weather: KOFP 181354Z AUTO 28008KT 10SM CLR 15/06 A3008 RMK AO2 SLP186 T01500056
KOFP Flight Activity (FlightAware)
KOFP Airport Info   (iFlightPlanner)
KOFP VFR Sectional Chart   (iFlightPlanner) 
KOFP IFR Low Chart   (iFlightPlanner) 

KOFP CTAF
Feed Status: UP   Listeners: 0
Listen in your browser - HTML5 player (in browser, HTML5)
Click here to listen with your own player (launches your MP3 player)
Archive Access: KOFP CTAF
FacilityFrequency
Hanover County CTAF122.700

NOTICE

Unauthorized use prohibited. See LiveATC.net Terms of Service


Airport/ARTCC Code
Frequency Search
(e.g., 124.400, 128.75)
Site-wide search
 


Browse Feeds
Top 50 Feeds
HF Oceanic Feeds
Coverage Map
Bad Weather Areas

LiveATC FAQ
Offer LiveATC feed
Contact LiveATC.net
Press Inquiries

LiveATC on iPhone
LiveATC on Android

Windows Phone
Windows 8/10

LiveATC Mobile
(Mobile browser)

ATC Audio Archives
Interesting Recordings

LiveATC Forums


Home Page
About LiveATC.net
Make a Donation
Terms of Use
Privacy Policy

Canadian Air Freqs

AIRMETs/SIGMETs

FAA Airport Status
NAS Status
Arrival Demand


Server Software By:
Icecast.org
Liquidsoap